South Hills Village, Pennsylvania
Current Conditions -  °F | °C
As of 12:53 AM on Friday 31 Oct 2014 (Local Time) from KAGC Reporting Station
Overcast Overcast  
Wind Chill: 46°   Ceiling: 4700
Heat Index: 46°   Visibility: 10mi
Dew Point: 34°   Wind: 3mph
Humidity: 63%   Direction: 260°W
Pressure: 30.02"   Gusts: NA
Location:  40.3301°N, 80.0824°W
Report Text: KAGC 310453Z 26003KT 10SM OVC047 08/01 A3002 RMK AO2 SLP174 T00780011 401060033
Loading
Personal Weather Stations






























Interactive Weather Map
Tropical Storm Tracking
New forecast layout! Learn more

10-Day Weather Forecast

Advertisements
Track Severe Weather on mobile